createdAt,value
2023-06-27T12:08:36.998Z,21.80
2023-06-27T12:11:06.563Z,21.93
2023-06-27T12:13:38.836Z,21.92
2023-06-27T12:16:07.439Z,21.58
2023-06-27T12:18:35.039Z,21.94
2023-06-27T12:21:03.688Z,22.40
2023-06-27T12:23:32.646Z,22.80
2023-06-27T12:26:00.323Z,22.71
2023-06-27T12:28:28.235Z,21.77
2023-06-27T12:30:56.385Z,22.36
2023-06-27T12:33:25.779Z,22.28
2023-06-27T12:35:53.730Z,22.01
2023-06-27T12:38:21.578Z,22.17
2023-06-27T12:40:49.688Z,22.25
2023-06-27T12:43:17.440Z,22.06
2023-06-27T12:45:59.603Z,22.43
2023-06-27T12:48:27.777Z,24.20
2023-06-27T12:50:56.010Z,24.11
2023-06-27T12:53:24.278Z,24.21
2023-06-27T12:55:52.251Z,25.29
2023-06-27T12:58:19.900Z,24.40
2023-06-27T13:00:48.803Z,25.09
2023-06-27T13:03:18.924Z,24.41
2023-06-27T13:05:47.758Z,24.87
2023-06-27T13:08:22.139Z,24.04
2023-06-27T13:10:51.654Z,23.89
2023-06-27T13:13:27.891Z,23.63
2023-06-27T13:16:09.401Z,23.36
2023-06-27T13:18:54.369Z,24.04
2023-06-27T13:21:23.879Z,24.33
2023-06-27T13:23:54.453Z,23.71
2023-06-27T13:26:24.626Z,24.10
2023-06-27T13:28:52.876Z,23.96
2023-06-27T13:31:26.653Z,25.16
2023-06-27T13:33:55.321Z,24.57
2023-06-27T13:36:26.641Z,24.68
2023-06-27T13:38:54.568Z,24.01
2023-06-27T13:41:23.680Z,24.25
2023-06-27T13:43:51.743Z,24.60
2023-06-27T13:46:22.042Z,24.80
2023-06-27T13:48:54.774Z,24.17
2023-06-27T13:51:24.021Z,24.49
2023-06-27T13:53:53.872Z,25.11
2023-06-27T13:56:21.913Z,25.26
2023-06-27T13:59:00.857Z,24.13
2023-06-27T14:01:29.432Z,24.45
2023-06-27T14:04:02.618Z,24.41
2023-06-27T14:06:31.737Z,24.42
2023-06-27T14:09:00.345Z,25.15
2023-06-27T14:11:31.924Z,24.63
2023-06-27T14:14:04.565Z,23.87
2023-06-27T14:16:33.087Z,23.83
2023-06-27T14:19:01.288Z,23.84
2023-06-27T14:21:29.702Z,23.36
2023-06-27T14:23:59.235Z,24.16
2023-06-27T14:26:30.710Z,23.79
2023-06-27T14:29:01.792Z,23.44
2023-06-27T14:31:31.387Z,23.62
2023-06-27T14:33:59.571Z,24.11
2023-06-27T14:36:30.209Z,24.03
2023-06-27T14:39:02.192Z,23.80
2023-06-27T14:41:38.596Z,23.94
2023-06-27T14:44:07.209Z,23.98
2023-06-27T14:46:36.032Z,24.39
2023-06-27T14:49:04.442Z,25.24
2023-06-27T14:51:37.026Z,25.13
2023-06-27T14:54:12.301Z,24.67
2023-06-27T14:56:41.013Z,24.85
2023-06-27T14:59:14.931Z,25.11
2023-06-27T15:01:43.150Z,25.52
2023-06-27T15:04:11.881Z,25.49
2023-06-27T15:06:40.170Z,25.67
2023-06-27T15:09:10.034Z,25.62
2023-06-27T15:11:38.379Z,25.49
2023-06-27T15:14:06.848Z,24.89
2023-06-27T15:16:36.031Z,24.53
2023-06-27T15:19:04.092Z,24.75
2023-06-27T15:21:32.190Z,25.01
2023-06-27T15:24:07.000Z,25.61
2023-06-27T15:26:35.532Z,25.41
2023-06-27T15:29:03.649Z,24.74
2023-06-27T15:31:34.631Z,25.40
2023-06-27T15:34:07.232Z,24.90
2023-06-27T15:36:37.598Z,25.55
2023-06-27T15:39:06.886Z,25.75
2023-06-27T15:41:37.219Z,26.19
2023-06-27T15:44:10.581Z,24.96
2023-06-27T15:46:40.726Z,24.67
2023-06-27T15:49:16.711Z,24.70
2023-06-27T15:51:49.879Z,24.70
2023-06-27T15:54:21.993Z,25.03
2023-06-27T15:56:54.246Z,25.24
2023-06-27T15:59:22.665Z,26.39
2023-06-27T16:01:51.411Z,26.94
2023-06-27T16:04:19.989Z,26.59
2023-06-27T16:06:48.567Z,25.19
2023-06-27T16:09:23.592Z,23.62
2023-06-27T16:11:51.982Z,23.33
2023-06-27T16:14:20.715Z,23.14
2023-06-27T16:16:51.094Z,23.23
2023-06-27T16:19:19.810Z,23.55
2023-06-27T16:21:51.013Z,23.91
2023-06-27T16:24:23.008Z,23.19
2023-06-27T16:27:01.389Z,23.19
2023-06-27T16:29:30.382Z,22.71
2023-06-27T16:31:58.634Z,22.99
2023-06-27T16:34:28.368Z,22.83
2023-06-27T16:36:56.759Z,22.77
2023-06-27T16:39:25.330Z,23.13
2023-06-27T16:41:53.743Z,22.89
2023-06-27T16:44:23.941Z,22.97
2023-06-27T16:46:56.455Z,23.19
2023-06-27T16:49:25.296Z,23.23
2023-06-27T16:51:53.949Z,22.74
2023-06-27T16:54:23.468Z,22.91
2023-06-27T16:56:57.871Z,22.74
2023-06-27T16:59:27.206Z,22.29
2023-06-27T17:01:59.342Z,22.75
2023-06-27T17:04:30.277Z,22.65
2023-06-27T17:07:02.436Z,22.63
2023-06-27T17:09:32.302Z,22.50
2023-06-27T17:12:04.272Z,22.37
2023-06-27T17:14:36.320Z,22.47
2023-06-27T17:17:04.710Z,23.13
2023-06-27T17:19:32.760Z,23.53
2023-06-27T17:22:06.340Z,23.85
2023-06-27T17:24:34.960Z,23.45
2023-06-27T17:27:06.261Z,23.55
2023-06-27T17:29:35.301Z,23.72
2023-06-27T17:32:09.998Z,23.67
2023-06-27T17:34:42.102Z,23.62
2023-06-27T17:37:10.641Z,23.35
2023-06-27T17:39:38.993Z,22.91
2023-06-27T17:42:08.314Z,22.88
2023-06-27T17:44:38.725Z,22.90
2023-06-27T17:47:09.808Z,22.52
2023-06-27T17:49:38.362Z,22.40
2023-06-27T17:52:06.962Z,22.43
2023-06-27T17:54:34.642Z,22.35
2023-06-27T17:57:02.174Z,22.45
2023-06-27T17:59:30.518Z,22.38
2023-06-27T18:01:58.129Z,22.48
2023-06-27T18:04:28.910Z,22.52
2023-06-27T18:06:56.552Z,22.56
2023-06-27T18:09:25.501Z,22.69
2023-06-27T18:11:54.971Z,22.68
2023-06-27T18:14:23.112Z,22.82
2023-06-27T18:16:51.164Z,22.78
2023-06-27T18:19:18.985Z,22.84
2023-06-27T18:21:47.512Z,22.87
2023-06-27T18:24:15.588Z,22.62
2023-06-27T18:26:43.148Z,22.67
2023-06-27T18:29:10.724Z,22.57
2023-06-27T18:31:40.123Z,22.63
2023-06-27T18:34:08.189Z,22.51
2023-06-27T18:36:36.626Z,22.48
2023-06-27T18:39:06.571Z,22.32
2023-06-27T18:41:34.307Z,22.31
2023-06-27T18:44:02.445Z,22.20
2023-06-27T18:46:31.053Z,22.18
2023-06-27T18:48:58.974Z,22.14
2023-06-27T18:51:27.510Z,22.33
2023-06-27T18:53:58.666Z,22.02
2023-06-27T18:56:27.065Z,22.01
2023-06-27T18:58:57.912Z,21.98
2023-06-27T19:01:26.518Z,21.88
2023-06-27T19:03:54.158Z,21.94
2023-06-27T19:06:30.211Z,21.79
2023-06-27T19:08:58.102Z,21.80
2023-06-27T19:11:28.559Z,21.72
2023-06-27T19:13:58.379Z,21.64
2023-06-27T19:16:26.197Z,21.59
2023-06-27T19:18:56.617Z,21.60
2023-06-27T19:21:24.574Z,21.51
2023-06-27T19:23:53.145Z,21.34
2023-06-27T19:26:21.421Z,21.37
2023-06-27T19:28:49.489Z,21.65
2023-06-27T19:31:17.751Z,21.44
2023-06-27T19:33:46.899Z,21.47
2023-06-27T19:36:14.453Z,21.41
2023-06-27T19:38:44.052Z,21.26
2023-06-27T19:41:13.651Z,21.28
2023-06-27T19:43:45.638Z,21.14
2023-06-27T19:46:15.825Z,21.02
2023-06-27T19:48:44.532Z,20.98
2023-06-27T19:51:14.016Z,20.90
2023-06-27T19:53:42.718Z,21.04
2023-06-27T19:56:11.247Z,21.13
2023-06-27T19:58:39.396Z,21.22
2023-06-27T20:01:07.162Z,21.10
2023-06-27T20:03:35.039Z,20.99
2023-06-27T20:06:02.704Z,20.94
2023-06-27T20:08:30.342Z,20.93
2023-06-27T20:10:58.160Z,20.87
2023-06-27T20:13:26.476Z,20.85
2023-06-27T20:15:54.113Z,20.84
2023-06-27T20:18:21.936Z,20.83
2023-06-27T20:20:51.283Z,20.76
2023-06-27T20:23:20.238Z,20.80
2023-06-27T20:25:47.727Z,20.75
2023-06-27T20:28:15.961Z,20.74
2023-06-27T20:30:45.394Z,20.68
2023-06-27T20:33:13.297Z,20.72
2023-06-27T20:35:41.464Z,20.58
2023-06-27T20:38:12.018Z,20.57
2023-06-27T20:40:40.032Z,20.55
2023-06-27T20:43:07.836Z,20.42
2023-06-27T20:45:35.418Z,20.48
2023-06-27T20:48:03.149Z,20.45
2023-06-27T20:50:31.092Z,20.45
2023-06-27T20:52:59.082Z,20.44
2023-06-27T20:55:26.702Z,20.41
2023-06-27T20:57:54.426Z,20.26
2023-06-27T21:00:22.517Z,20.25
2023-06-27T21:02:52.442Z,20.24
2023-06-27T21:05:21.516Z,20.20
2023-06-27T21:07:49.605Z,20.04
2023-06-27T21:10:17.501Z,20.11
2023-06-27T21:12:45.564Z,20.13
2023-06-27T21:15:14.230Z,20.17
2023-06-27T21:17:42.525Z,20.31
2023-06-27T21:20:11.357Z,20.16
2023-06-27T21:22:41.754Z,20.19
2023-06-27T21:25:10.147Z,20.10
2023-06-27T21:27:51.029Z,20.14
2023-06-27T21:30:20.260Z,20.19
2023-06-27T21:32:48.149Z,20.08
2023-06-27T21:35:15.790Z,20.05
2023-06-27T21:37:43.970Z,20.08
2023-06-27T21:40:13.374Z,19.98
2023-06-27T21:42:45.006Z,19.85
2023-06-27T21:45:12.886Z,19.77
2023-06-27T21:47:41.399Z,19.61
2023-06-27T21:50:09.243Z,19.65
2023-06-27T21:52:37.260Z,19.61
2023-06-27T21:55:05.805Z,19.45
2023-06-27T21:57:33.518Z,19.41
2023-06-27T22:00:01.236Z,19.38
2023-06-27T22:02:37.959Z,19.33
2023-06-27T22:05:06.699Z,19.10
2023-06-27T22:07:35.827Z,19.00
2023-06-27T22:10:04.841Z,18.89
2023-06-27T22:12:32.770Z,18.78
2023-06-27T22:15:02.280Z,18.61
2023-06-27T22:17:30.358Z,18.49
2023-06-27T22:19:58.152Z,18.30
2023-06-27T22:22:27.639Z,18.35
2023-06-27T22:24:55.260Z,18.10
2023-06-27T22:27:23.209Z,17.90
2023-06-27T22:29:51.758Z,17.78
2023-06-27T22:32:19.786Z,17.59
2023-06-27T22:34:47.666Z,17.72
2023-06-27T22:37:16.307Z,17.46
2023-06-27T22:39:47.267Z,17.43
2023-06-27T22:42:15.235Z,17.56
2023-06-27T22:44:42.816Z,17.37
2023-06-27T22:47:12.869Z,17.33
2023-06-27T22:49:41.110Z,17.33
2023-06-27T22:52:08.783Z,17.29
2023-06-27T22:54:36.391Z,17.34
2023-06-27T22:57:04.528Z,17.35
2023-06-27T22:59:32.146Z,17.27
2023-06-27T23:01:59.696Z,17.28
2023-06-27T23:04:27.264Z,17.26
2023-06-27T23:06:56.489Z,16.93
2023-06-27T23:09:24.522Z,16.90
2023-06-27T23:11:52.422Z,16.90
2023-06-27T23:14:20.633Z,16.82
2023-06-27T23:16:48.322Z,16.77
2023-06-27T23:19:16.292Z,16.46
2023-06-27T23:21:44.321Z,16.33
2023-06-27T23:24:12.428Z,16.23
2023-06-27T23:26:40.805Z,15.97
2023-06-27T23:29:13.753Z,15.88
2023-06-27T23:31:42.288Z,15.76
2023-06-27T23:34:11.382Z,15.87
2023-06-27T23:36:44.197Z,15.82
2023-06-27T23:39:19.300Z,15.73
2023-06-27T23:41:51.247Z,15.61
2023-06-27T23:44:19.031Z,15.80
2023-06-27T23:46:46.713Z,15.70
2023-06-27T23:49:14.571Z,15.72
2023-06-27T23:51:42.151Z,15.60
2023-06-27T23:54:10.034Z,15.66
2023-06-27T23:56:37.576Z,15.65
2023-06-27T23:59:05.216Z,15.74
